Time;durP1;ratioP1;P1;durP2;ratioP2;P2;SDS_P1;SDS_P2;PMS_P1;PMS_P2;Temp;Humidity;BMP_temperature;BMP_pressure;BME280_temperature;BME280_humidity;BME280_pressure;Samples;Min_cycle;Max_cycle;Signal;HPM_P1;HPM_P2
2022/07/02 00:00:56;;;;;;;6.13;2.25;;;;;;;;;;5057100;28;20049;-89
2022/07/02 00:03:24;;;;;;;4.88;1.88;;;;;;;;;;5057447;28;20086;-89
2022/07/02 00:05:57;;;;;;;4.90;1.92;;;;;;;;;;5056465;28;20049;-90
2022/07/02 00:08:26;;;;;;;7.35;2.63;;;;;;;;;;5056075;28;20041;-89
2022/07/02 00:10:54;;;;;;;6.60;2.30;;;;;;;;;;5057269;28;20051;-89
2022/07/02 00:13:20;;;;;;;7.00;2.28;;;;;;;;;;5053500;28;20045;-88
2022/07/02 00:15:47;;;;;;;5.57;2.17;;;;;;;;;;5058214;28;20049;-90
2022/07/02 00:18:13;;;;;;;6.20;2.00;;;;;;;;;;5052123;28;20053;-89
2022/07/02 00:20:41;;;;;;;5.07;2.10;;;;;;;;;;5033298;28;20502;-89
2022/07/02 00:23:09;;;;;;;6.72;2.28;;;;;;;;;;5056040;28;20053;-88
2022/07/02 00:25:43;;;;;;;6.53;2.30;;;;;;;;;;5056481;28;20048;-89
2022/07/02 00:28:13;;;;;;;9.15;2.50;;;;;;;;;;5056332;28;20044;-89
2022/07/02 00:30:40;;;;;;;7.18;2.72;;;;;;;;;;5056944;28;20116;-89
2022/07/02 00:33:06;;;;;;;7.78;2.50;;;;;;;;;;5055987;28;20537;-89
2022/07/02 00:35:33;;;;;;;6.75;2.60;;;;;;;;;;5056348;28;20033;-90
2022/07/02 00:38:02;;;;;;;6.88;2.28;;;;;;;;;;5026250;28;20057;-90
2022/07/02 00:40:29;;;;;;;5.25;2.28;;;;;;;;;;5040458;28;20116;-89
2022/07/02 00:42:55;;;;;;;6.05;2.50;;;;;;;;;;5025140;28;20044;-89
2022/07/02 00:45:21;;;;;;;6.13;2.35;;;;;;;;;;5056413;28;20399;-90
2022/07/02 00:47:49;;;;;;;6.80;2.80;;;;;;;;;;5052061;28;20053;-91
2022/07/02 00:50:15;;;;;;;7.63;2.58;;;;;;;;;;5018587;28;20076;-90
2022/07/02 00:52:41;;;;;;;8.60;2.80;;;;;;;;;;5018500;28;20160;-90
2022/07/02 00:55:07;;;;;;;5.47;2.63;;;;;;;;;;5029555;28;20448;-90
2022/07/02 00:57:33;;;;;;;7.45;2.80;;;;;;;;;;5028454;28;20056;-89
2022/07/02 01:00:00;;;;;;;6.68;2.70;;;;;;;;;;5055377;28;20045;-89
2022/07/02 01:02:26;;;;;;;6.40;2.72;;;;;;;;;;5019249;28;20087;-90
2022/07/02 01:04:53;;;;;;;6.65;2.83;;;;;;;;;;5052526;28;20053;-89
2022/07/02 01:07:20;;;;;;;6.00;3.00;;;;;;;;;;5055882;28;20041;-90
2022/07/02 01:12:34;;;;;;;6.97;2.85;;;;;;;;;;5055203;28;20507;-89
2022/07/02 01:15:00;;;;;;;7.40;2.97;;;;;;;;;;5032774;28;20072;-90
2022/07/02 01:17:26;;;;;;;8.80;2.72;;;;;;;;;;5039124;28;20495;-91
2022/07/02 01:19:53;;;;;;;6.85;3.10;;;;;;;;;;5027315;28;20495;-90
2022/07/02 01:22:20;;;;;;;6.85;3.20;;;;;;;;;;5060485;28;20135;-90
2022/07/02 01:24:47;;;;;;;10.27;3.40;;;;;;;;;;5057670;28;20043;-90
2022/07/02 01:27:13;;;;;;;9.57;3.28;;;;;;;;;;5047477;28;20044;-90
2022/07/02 01:29:40;;;;;;;8.77;3.30;;;;;;;;;;5052634;28;20025;-90
2022/07/02 01:32:06;;;;;;;6.13;3.10;;;;;;;;;;5079699;28;20033;-89
2022/07/02 01:34:39;;;;;;;7.05;3.10;;;;;;;;;;5075219;28;20037;-91
2022/07/02 01:37:10;;;;;;;7.55;3.00;;;;;;;;;;5078192;28;20127;-90
2022/07/02 01:39:37;;;;;;;7.70;3.33;;;;;;;;;;5062665;28;20113;-90
2022/07/02 01:42:04;;;;;;;8.68;3.03;;;;;;;;;;5043832;28;20048;-89
2022/07/02 01:44:30;;;;;;;8.45;3.60;;;;;;;;;;5078814;28;20028;-90
2022/07/02 01:46:56;;;;;;;8.32;3.30;;;;;;;;;;5080178;28;20071;-90
2022/07/02 01:49:22;;;;;;;6.50;3.28;;;;;;;;;;5078989;28;20025;-89
2022/07/02 01:51:49;;;;;;;8.30;3.40;;;;;;;;;;5060730;28;20040;-89
2022/07/02 01:54:15;;;;;;;8.15;3.83;;;;;;;;;;5078462;28;20079;-88
2022/07/02 01:56:41;;;;;;;8.50;3.60;;;;;;;;;;5059439;28;20040;-90
2022/07/02 01:59:07;;;;;;;6.63;3.33;;;;;;;;;;5055719;28;20487;-90
2022/07/02 02:01:33;;;;;;;6.85;3.35;;;;;;;;;;5046390;28;20065;-90
2022/07/02 02:04:00;;;;;;;8.52;3.75;;;;;;;;;;5045432;28;20495;-91
2022/07/02 02:06:27;;;;;;;9.05;3.85;;;;;;;;;;5055061;28;20045;-89
2022/07/02 02:08:53;;;;;;;13.10;4.28;;;;;;;;;;5053910;28;20163;-90
2022/07/02 02:11:21;;;;;;;7.93;3.50;;;;;;;;;;5052431;28;20049;-90
2022/07/02 02:13:47;;;;;;;6.45;3.70;;;;;;;;;;5036359;28;20045;-90
2022/07/02 02:16:13;;;;;;;7.72;3.80;;;;;;;;;;5054664;28;20041;-90
2022/07/02 02:18:39;;;;;;;9.30;3.70;;;;;;;;;;5020331;28;20071;-91
2022/07/02 02:21:05;;;;;;;7.45;3.70;;;;;;;;;;5053334;28;20460;-91
2022/07/02 02:23:31;;;;;;;8.43;3.72;;;;;;;;;;5033311;28;20065;-91
2022/07/02 02:25:57;;;;;;;8.50;3.75;;;;;;;;;;5055522;28;20044;-91
2022/07/02 02:28:23;;;;;;;7.85;3.83;;;;;;;;;;5055721;28;20079;-91
2022/07/02 02:30:49;;;;;;;7.57;4.10;;;;;;;;;;5041907;28;20407;-91
2022/07/02 02:33:15;;;;;;;9.85;4.30;;;;;;;;;;5055394;28;20130;-92
2022/07/02 02:35:41;;;;;;;7.47;4.15;;;;;;;;;;5041077;28;20088;-91
2022/07/02 02:38:07;;;;;;;10.40;4.10;;;;;;;;;;5062642;28;20124;-91
2022/07/02 02:40:33;;;;;;;7.30;3.90;;;;;;;;;;5062400;28;20381;-91
2022/07/02 02:42:59;;;;;;;10.68;4.25;;;;;;;;;;5050380;28;20092;-92
2022/07/02 02:45:25;;;;;;;11.07;4.68;;;;;;;;;;5054111;28;20045;-90
2022/07/02 02:47:51;;;;;;;8.23;4.30;;;;;;;;;;5054872;28;20069;-92
2022/07/02 02:50:17;;;;;;;9.27;4.20;;;;;;;;;;5056160;28;20476;-90
2022/07/02 02:52:43;;;;;;;8.27;4.00;;;;;;;;;;5035461;28;20029;-90
2022/07/02 02:55:09;;;;;;;10.00;4.60;;;;;;;;;;5054018;28;20055;-91
2022/07/02 02:57:35;;;;;;;8.38;4.10;;;;;;;;;;5055611;28;20051;-92
2022/07/02 03:00:03;;;;;;;14.10;4.57;;;;;;;;;;5055750;28;20131;-92
2022/07/02 03:02:29;;;;;;;8.07;4.45;;;;;;;;;;5053468;28;20053;-92
2022/07/02 03:04:55;;;;;;;8.40;4.13;;;;;;;;;;5052585;28;20123;-91
2022/07/02 03:07:21;;;;;;;7.75;4.68;;;;;;;;;;5053217;28;20084;-92
2022/07/02 03:09:47;;;;;;;11.07;4.57;;;;;;;;;;5037002;28;20179;-92
2022/07/02 03:12:13;;;;;;;8.35;4.38;;;;;;;;;;5035964;28;20566;-93
2022/07/02 03:14:39;;;;;;;7.85;4.20;;;;;;;;;;5057977;28;20051;-93
2022/07/02 03:17:05;;;;;;;10.07;4.43;;;;;;;;;;5062067;28;20100;-93
2022/07/02 03:19:31;;;;;;;9.35;4.90;;;;;;;;;;5038648;28;20037;-92
2022/07/02 03:21:57;;;;;;;7.28;4.30;;;;;;;;;;5023150;28;20049;-92
2022/07/02 03:24:23;;;;;;;8.07;4.70;;;;;;;;;;5033173;28;20548;-90
2022/07/02 03:26:49;;;;;;;10.13;4.72;;;;;;;;;;5061720;28;20136;-92
2022/07/02 03:29:15;;;;;;;6.85;3.88;;;;;;;;;;5059454;28;20098;-91
2022/07/02 03:31:41;;;;;;;7.72;4.78;;;;;;;;;;5041303;28;20049;-91
2022/07/02 03:34:07;;;;;;;10.63;4.68;;;;;;;;;;5053739;28;20052;-91
2022/07/02 03:36:33;;;;;;;9.43;4.90;;;;;;;;;;5058082;28;20067;-92
2022/07/02 03:38:59;;;;;;;9.20;4.72;;;;;;;;;;5055739;28;20372;-92
2022/07/02 03:41:25;;;;;;;7.25;4.32;;;;;;;;;;5059743;28;20049;-93
2022/07/02 03:43:51;;;;;;;8.27;4.38;;;;;;;;;;5058124;28;20041;-92
2022/07/02 03:46:18;;;;;;;9.05;4.50;;;;;;;;;;5058805;28;20129;-92
2022/07/02 03:48:44;;;;;;;6.97;3.88;;;;;;;;;;5041278;28;20076;-92
2022/07/02 03:51:10;;;;;;;11.27;4.60;;;;;;;;;;5057576;28;20515;-92
2022/07/02 03:53:37;;;;;;;8.38;4.22;;;;;;;;;;5041096;28;20049;-92
2022/07/02 03:56:03;;;;;;;9.27;4.25;;;;;;;;;;5041095;28;20475;-91
2022/07/02 03:58:30;;;;;;;8.63;4.20;;;;;;;;;;5056114;28;20049;-91
2022/07/02 04:00:57;;;;;;;8.73;4.72;;;;;;;;;;5057550;28;20533;-92
2022/07/02 04:03:23;;;;;;;11.73;4.88;;;;;;;;;;5039793;28;20049;-92
2022/07/02 04:05:49;;;;;;;9.73;5.03;;;;;;;;;;5057004;28;20483;-92
2022/07/02 04:08:15;;;;;;;10.30;4.90;;;;;;;;;;5057218;28;20041;-91
2022/07/02 04:10:42;;;;;;;8.95;5.13;;;;;;;;;;5056527;28;20372;-92
2022/07/02 04:13:08;;;;;;;9.10;4.95;;;;;;;;;;5057976;28;20128;-91
2022/07/02 04:15:34;;;;;;;8.82;4.80;;;;;;;;;;5037275;28;20464;-92
2022/07/02 04:18:00;;;;;;;9.85;5.18;;;;;;;;;;5057764;28;20080;-93
2022/07/02 04:20:26;;;;;;;8.43;5.03;;;;;;;;;;5057206;28;20096;-92
2022/07/02 04:22:53;;;;;;;8.98;4.60;;;;;;;;;;5034424;28;20087;-91
2022/07/02 04:25:19;;;;;;;7.68;3.97;;;;;;;;;;5034794;28;20052;-91
2022/07/02 04:27:45;;;;;;;9.48;4.03;;;;;;;;;;5052145;28;20453;-92
2022/07/02 04:30:11;;;;;;;8.38;4.00;;;;;;;;;;5055394;28;20111;-91
2022/07/02 04:32:37;;;;;;;8.30;3.78;;;;;;;;;;5021546;28;20041;-92
2022/07/02 04:35:05;;;;;;;7.70;3.50;;;;;;;;;;5053684;28;20055;-92
2022/07/02 04:37:31;;;;;;;7.85;3.53;;;;;;;;;;5020294;28;20049;-91
2022/07/02 04:39:57;;;;;;;7.82;3.90;;;;;;;;;;5038550;28;20479;-90
2022/07/02 04:42:23;;;;;;;8.48;3.72;;;;;;;;;;5055289;28;20041;-91
2022/07/02 04:44:49;;;;;;;10.30;3.65;;;;;;;;;;5053901;28;20447;-89
2022/07/02 04:47:15;;;;;;;8.50;3.92;;;;;;;;;;5056607;28;20134;-90
2022/07/02 04:49:41;;;;;;;8.38;3.35;;;;;;;;;;5036720;28;20395;-89
2022/07/02 04:52:07;;;;;;;9.00;4.00;;;;;;;;;;5046167;28;20094;-90
2022/07/02 04:54:33;;;;;;;8.75;3.78;;;;;;;;;;5054763;28;20150;-88
2022/07/02 04:56:59;;;;;;;8.32;3.88;;;;;;;;;;5055489;28;20376;-90
2022/07/02 04:59:25;;;;;;;8.05;4.05;;;;;;;;;;5042986;28;20074;-89
2022/07/02 05:01:51;;;;;;;7.85;4.30;;;;;;;;;;5073562;28;20049;-90
2022/07/02 05:04:18;;;;;;;9.70;4.00;;;;;;;;;;5053060;28;20452;-89
2022/07/02 05:06:44;;;;;;;8.90;4.60;;;;;;;;;;5055708;28;20048;-89
2022/07/02 05:09:10;;;;;;;9.57;4.60;;;;;;;;;;5037907;28;20056;-90
2022/07/02 05:11:36;;;;;;;8.18;4.40;;;;;;;;;;5056752;28;20124;-89
2022/07/02 05:14:02;;;;;;;9.15;4.32;;;;;;;;;;5006177;28;20088;-91
2022/07/02 05:16:29;;;;;;;8.27;4.30;;;;;;;;;;5036073;28;20037;-90
2022/07/02 05:18:55;;;;;;;7.07;3.90;;;;;;;;;;5036552;28;20041;-90
2022/07/02 05:21:21;;;;;;;9.50;4.68;;;;;;;;;;5050816;28;21402;-90
2022/07/02 05:23:47;;;;;;;9.13;4.63;;;;;;;;;;5053215;28;20040;-90
2022/07/02 05:26:13;;;;;;;9.13;4.75;;;;;;;;;;5044402;28;20045;-90
2022/07/02 05:28:39;;;;;;;9.90;4.85;;;;;;;;;;5074895;28;20072;-88
2022/07/02 05:31:07;;;;;;;10.32;4.20;;;;;;;;;;5081359;28;20102;-87
2022/07/02 05:33:33;;;;;;;8.35;4.32;;;;;;;;;;5065929;28;20020;-89
2022/07/02 05:35:59;;;;;;;10.40;4.15;;;;;;;;;;5074700;28;20101;-90
2022/07/02 05:38:25;;;;;;;9.88;4.00;;;;;;;;;;5059326;28;20025;-89
2022/07/02 05:40:51;;;;;;;9.73;4.10;;;;;;;;;;5061092;28;20040;-87
2022/07/02 05:43:17;;;;;;;10.60;4.03;;;;;;;;;;5076090;28;20072;-88
2022/07/02 05:45:43;;;;;;;9.98;4.00;;;;;;;;;;5065164;28;20072;-87
2022/07/02 05:48:09;;;;;;;6.47;3.38;;;;;;;;;;5044426;28;20403;-87
2022/07/02 05:50:35;;;;;;;7.47;3.20;;;;;;;;;;5056231;28;20041;-86
2022/07/02 05:53:01;;;;;;;8.15;3.30;;;;;;;;;;5054437;28;20491;-89
2022/07/02 05:55:27;;;;;;;8.60;3.15;;;;;;;;;;5055940;28;20048;-87
2022/07/02 05:57:54;;;;;;;5.95;2.50;;;;;;;;;;5057336;28;20063;-90
2022/07/02 06:00:22;;;;;;;8.05;2.72;;;;;;;;;;5050907;28;20041;-88
2022/07/02 06:02:48;;;;;;;8.25;2.90;;;;;;;;;;5050491;28;20033;-90
2022/07/02 06:07:59;;;;;;;5.50;2.35;;;;;;;;;;5054599;28;20056;-89
2022/07/02 06:10:25;;;;;;;6.10;2.55;;;;;;;;;;5057486;28;20049;-89
2022/07/02 06:12:52;;;;;;;7.25;2.38;;;;;;;;;;5056787;28;20060;-89
2022/07/02 06:15:18;;;;;;;6.50;2.58;;;;;;;;;;5055611;28;20048;-90
2022/07/02 06:17:45;;;;;;;7.28;2.30;;;;;;;;;;5056213;28;20045;-91
2022/07/02 06:20:15;;;;;;;7.80;2.22;;;;;;;;;;5058071;28;20041;-88
2022/07/02 06:22:41;;;;;;;7.00;2.00;;;;;;;;;;5057448;28;20045;-89
2022/07/02 06:25:08;;;;;;;7.57;1.92;;;;;;;;;;5054941;28;20041;-88
2022/07/02 06:27:34;;;;;;;6.80;2.08;;;;;;;;;;5061744;28;20055;-88
2022/07/02 06:30:06;;;;;;;5.20;1.60;;;;;;;;;;5058554;28;20559;-90
2022/07/02 06:32:32;;;;;;;5.80;1.80;;;;;;;;;;5076037;28;20041;-87
2022/07/02 06:34:59;;;;;;;5.60;1.50;;;;;;;;;;5063284;28;20074;-87
2022/07/02 06:37:25;;;;;;;5.90;1.40;;;;;;;;;;5037931;28;20045;-89
2022/07/02 06:39:51;;;;;;;5.45;1.30;;;;;;;;;;5044395;28;20093;-89
2022/07/02 06:42:28;;;;;;;5.45;1.50;;;;;;;;;;5057355;28;20086;-88
2022/07/02 06:44:55;;;;;;;6.50;1.33;;;;;;;;;;5060322;28;20099;-88
2022/07/02 06:47:21;;;;;;;7.82;1.60;;;;;;;;;;5058021;28;20108;-88
2022/07/02 06:49:48;;;;;;;6.65;1.60;;;;;;;;;;5064176;28;20049;-89
2022/07/02 06:52:14;;;;;;;6.47;1.67;;;;;;;;;;5066913;28;20068;-90
2022/07/02 06:54:41;;;;;;;5.10;1.50;;;;;;;;;;5051872;28;20072;-89
2022/07/02 06:57:07;;;;;;;6.85;1.67;;;;;;;;;;5063638;28;20041;-89
2022/07/02 06:59:33;;;;;;;6.22;1.67;;;;;;;;;;5061900;28;20040;-89
2022/07/02 07:02:00;;;;;;;9.60;1.77;;;;;;;;;;5055343;28;20044;-87
2022/07/02 07:04:27;;;;;;;6.97;1.60;;;;;;;;;;5048175;28;20095;-88
2022/07/02 07:09:19;;;;;;;6.88;2.08;;;;;;;;;;5059358;28;20075;-87
2022/07/02 07:11:45;;;;;;;7.00;1.50;;;;;;;;;;5045113;28;20045;-88
2022/07/02 07:14:11;;;;;;;4.50;1.00;;;;;;;;;;5067973;28;20045;-87
2022/07/02 07:16:39;;;;;;;6.20;1.20;;;;;;;;;;5067707;28;20037;-88
2022/07/02 07:19:05;;;;;;;4.93;1.20;;;;;;;;;;5065202;28;20376;-89
2022/07/02 07:21:32;;;;;;;5.88;1.27;;;;;;;;;;5075361;28;20037;-91
2022/07/02 07:23:58;;;;;;;4.10;1.13;;;;;;;;;;5068796;28;20053;-87
2022/07/02 07:26:24;;;;;;;6.47;1.45;;;;;;;;;;5037367;28;20036;-89
2022/07/02 07:28:50;;;;;;;6.50;1.13;;;;;;;;;;5068392;28;20045;-89
2022/07/02 07:31:19;;;;;;;5.43;1.02;;;;;;;;;;5054375;28;20049;-88
2022/07/02 07:33:46;;;;;;;4.00;0.90;;;;;;;;;;5071586;28;20029;-90
2022/07/02 07:36:12;;;;;;;4.45;1.05;;;;;;;;;;5065935;28;20033;-89
2022/07/02 07:38:38;;;;;;;4.38;0.90;;;;;;;;;;5065560;28;20033;-88
2022/07/02 07:41:08;;;;;;;4.80;1.00;;;;;;;;;;5047539;28;20096;-88
2022/07/02 07:43:34;;;;;;;4.03;1.20;;;;;;;;;;5063236;28;20327;-87
2022/07/02 07:46:00;;;;;;;3.67;0.95;;;;;;;;;;5075188;28;20036;-87
2022/07/02 07:48:26;;;;;;;4.38;0.90;;;;;;;;;;5078553;28;20020;-86
2022/07/02 07:50:52;;;;;;;4.28;0.88;;;;;;;;;;5044953;28;20036;-85
2022/07/02 07:53:19;;;;;;;5.32;1.17;;;;;;;;;;5078072;28;20025;-85
2022/07/02 07:55:46;;;;;;;4.32;0.80;;;;;;;;;;5061027;28;20066;-86
2022/07/02 07:58:12;;;;;;;2.30;0.60;;;;;;;;;;5072136;28;20096;-87
2022/07/02 08:00:38;;;;;;;5.07;0.90;;;;;;;;;;5078437;28;20025;-86
2022/07/02 08:03:04;;;;;;;4.47;0.75;;;;;;;;;;5061318;28;20029;-86
2022/07/02 08:05:30;;;;;;;3.13;0.60;;;;;;;;;;5077456;28;20048;-86
2022/07/02 08:07:56;;;;;;;3.45;0.70;;;;;;;;;;5078046;28;20033;-84
2022/07/02 08:10:22;;;;;;;5.05;0.77;;;;;;;;;;5076738;28;20053;-86
2022/07/02 08:12:49;;;;;;;5.57;0.80;;;;;;;;;;5080596;28;20048;-85
2022/07/02 08:15:15;;;;;;;2.08;0.52;;;;;;;;;;5070328;28;20033;-87
2022/07/02 08:17:41;;;;;;;3.47;0.70;;;;;;;;;;5045168;28;20044;-88
2022/07/02 08:20:08;;;;;;;4.20;1.00;;;;;;;;;;5067390;28;20044;-84
2022/07/02 08:22:35;;;;;;;4.65;0.85;;;;;;;;;;5063851;28;20040;-85
2022/07/02 08:25:02;;;;;;;3.65;0.70;;;;;;;;;;5067941;28;20418;-84
2022/07/02 08:27:28;;;;;;;5.40;0.90;;;;;;;;;;5064822;28;20045;-84
2022/07/02 08:29:54;;;;;;;5.35;0.70;;;;;;;;;;5064725;28;20581;-84
2022/07/02 08:32:20;;;;;;;2.90;0.90;;;;;;;;;;5065373;28;20511;-87
2022/07/02 08:34:49;;;;;;;4.47;0.60;;;;;;;;;;5040709;28;20048;-84
2022/07/02 08:37:15;;;;;;;2.75;0.52;;;;;;;;;;5064032;28;20045;-86
2022/07/02 08:39:41;;;;;;;3.72;0.70;;;;;;;;;;5070072;28;20036;-86
2022/07/02 08:42:09;;;;;;;3.25;0.70;;;;;;;;;;5033417;28;20074;-86
2022/07/02 08:44:36;;;;;;;4.65;0.77;;;;;;;;;;5067645;28;20037;-88
2022/07/02 08:47:04;;;;;;;1.60;0.50;;;;;;;;;;5069470;28;20053;-85
2022/07/02 08:49:31;;;;;;;1.02;0.30;;;;;;;;;;5067896;28;20017;-87
2022/07/02 08:52:04;;;;;;;1.60;0.40;;;;;;;;;;5050193;28;20045;-88
2022/07/02 08:54:33;;;;;;;1.75;0.40;;;;;;;;;;5046560;28;20082;-88
2022/07/02 08:57:01;;;;;;;4.03;0.50;;;;;;;;;;5061052;28;20036;-87
2022/07/02 08:59:30;;;;;;;2.47;0.50;;;;;;;;;;5066516;28;20037;-88
2022/07/02 09:01:56;;;;;;;2.60;0.68;;;;;;;;;;5058265;28;20049;-86
2022/07/02 09:04:23;;;;;;;4.15;0.60;;;;;;;;;;5060248;28;20055;-86
2022/07/02 09:06:52;;;;;;;2.40;0.70;;;;;;;;;;5041607;28;20080;-90
2022/07/02 09:09:17;;;;;;;2.45;0.60;;;;;;;;;;5038215;28;20399;-89
2022/07/02 09:11:44;;;;;;;2.60;0.57;;;;;;;;;;5053433;28;20033;-88
2022/07/02 09:14:10;;;;;;;3.13;0.60;;;;;;;;;;5056018;28;20045;-87
2022/07/02 09:16:38;;;;;;;2.85;0.68;;;;;;;;;;5059129;28;20087;-86
2022/07/02 09:19:05;;;;;;;3.42;0.55;;;;;;;;;;5022139;28;20056;-87
2022/07/02 09:21:41;;;;;;;3.83;0.80;;;;;;;;;;5057310;28;20044;-90
2022/07/02 09:24:07;;;;;;;2.72;0.60;;;;;;;;;;5052796;28;20069;-87
2022/07/02 09:26:33;;;;;;;1.65;0.50;;;;;;;;;;5037039;28;20049;-88
2022/07/02 09:29:00;;;;;;;3.95;0.55;;;;;;;;;;5058181;28;20049;-90
2022/07/02 09:31:29;;;;;;;4.72;0.60;;;;;;;;;;5037917;28;20098;-86
2022/07/02 09:33:55;;;;;;;3.60;0.65;;;;;;;;;;5054233;28;20081;-89
2022/07/02 09:36:22;;;;;;;3.33;0.70;;;;;;;;;;5057938;28;20048;-85
2022/07/02 09:38:50;;;;;;;2.10;0.50;;;;;;;;;;5057410;28;20399;-83
2022/07/02 09:41:21;;;;;;;5.13;0.63;;;;;;;;;;5056616;28;20041;-88
2022/07/02 09:43:54;;;;;;;4.40;0.70;;;;;;;;;;5056179;28;20037;-87
2022/07/02 09:46:23;;;;;;;2.58;0.70;;;;;;;;;;5037353;28;20144;-86
2022/07/02 09:48:49;;;;;;;5.30;0.85;;;;;;;;;;5054840;28;20041;-88
2022/07/02 09:51:16;;;;;;;2.05;0.50;;;;;;;;;;5055245;28;20077;-87
2022/07/02 09:53:48;;;;;;;2.65;0.60;;;;;;;;;;5056704;28;20098;-87
2022/07/02 09:56:14;;;;;;;4.57;0.70;;;;;;;;;;5058584;28;20102;-87
2022/07/02 09:58:40;;;;;;;3.78;0.70;;;;;;;;;;5021561;28;20083;-87
2022/07/02 10:01:06;;;;;;;4.20;0.95;;;;;;;;;;5053851;28;20472;-87
2022/07/02 10:03:32;;;;;;;2.25;0.60;;;;;;;;;;5078099;28;20048;-85
2022/07/02 10:06:00;;;;;;;3.72;0.85;;;;;;;;;;5054222;28;20083;-87
2022/07/02 10:08:30;;;;;;;3.50;0.80;;;;;;;;;;5037604;28;20365;-88
2022/07/02 10:10:56;;;;;;;4.15;0.90;;;;;;;;;;5001197;28;20060;-87
2022/07/02 10:13:22;;;;;;;4.15;0.80;;;;;;;;;;5036543;28;20548;-90
2022/07/02 10:15:52;;;;;;;3.72;0.80;;;;;;;;;;5045594;28;20045;-91
2022/07/02 10:18:19;;;;;;;2.95;0.63;;;;;;;;;;5053587;28;20048;-89
2022/07/02 10:20:45;;;;;;;3.97;0.80;;;;;;;;;;5059453;28;20052;-89
2022/07/02 10:23:11;;;;;;;5.30;0.75;;;;;;;;;;5039718;28;20075;-89
2022/07/02 10:25:38;;;;;;;4.75;0.80;;;;;;;;;;5055820;28;20090;-89
2022/07/02 10:28:08;;;;;;;3.65;0.90;;;;;;;;;;5056799;28;20052;-89
2022/07/02 10:30:35;;;;;;;4.05;0.85;;;;;;;;;;5066989;28;20396;-87
2022/07/02 10:33:07;;;;;;;3.10;0.80;;;;;;;;;;5046888;28;20056;-86
2022/07/02 10:35:34;;;;;;;6.43;1.10;;;;;;;;;;5057940;28;20049;-86
2022/07/02 10:38:00;;;;;;;4.45;0.80;;;;;;;;;;5068599;28;20526;-84
2022/07/02 10:40:27;;;;;;;4.68;0.90;;;;;;;;;;5077098;28;20024;-86
2022/07/02 10:42:57;;;;;;;4.85;0.80;;;;;;;;;;5076473;28;20506;-86
2022/07/02 10:45:24;;;;;;;3.72;0.65;;;;;;;;;;5053901;28;20042;-90
2022/07/02 10:48:03;;;;;;;4.10;0.90;;;;;;;;;;5060077;28;20048;-87
2022/07/02 10:50:35;;;;;;;4.28;0.90;;;;;;;;;;5071255;28;20041;-87
2022/07/02 10:53:08;;;;;;;3.85;0.80;;;;;;;;;;5040749;28;20403;-87
2022/07/02 10:55:34;;;;;;;3.63;0.88;;;;;;;;;;5056957;28;20106;-86
2022/07/02 10:58:01;;;;;;;5.05;1.00;;;;;;;;;;5039974;28;20105;-87
2022/07/02 11:00:31;;;;;;;5.40;1.00;;;;;;;;;;5064321;28;20033;-86
2022/07/02 11:02:58;;;;;;;3.15;0.63;;;;;;;;;;5064990;28;20101;-86
2022/07/02 11:05:24;;;;;;;4.03;0.77;;;;;;;;;;5029616;28;20502;-85
2022/07/02 11:07:50;;;;;;;4.95;0.85;;;;;;;;;;5039331;28;20491;-87
2022/07/02 11:10:25;;;;;;;5.95;0.90;;;;;;;;;;5046014;28;20061;-88
2022/07/02 11:13:01;;;;;;;4.50;0.88;;;;;;;;;;5037754;28;20168;-85
2022/07/02 11:15:37;;;;;;;3.60;0.80;;;;;;;;;;5039627;28;20033;-85
2022/07/02 11:18:06;;;;;;;3.55;0.80;;;;;;;;;;5048273;28;20041;-85
2022/07/02 11:20:35;;;;;;;3.95;0.75;;;;;;;;;;5041193;28;20041;-85
2022/07/02 11:23:01;;;;;;;6.95;1.10;;;;;;;;;;5048238;28;20053;-86
2022/07/02 11:25:29;;;;;;;5.03;1.10;;;;;;;;;;5043454;28;20044;-87
2022/07/02 11:27:56;;;;;;;3.88;0.90;;;;;;;;;;5019459;28;20042;-85
2022/07/02 11:30:25;;;;;;;4.28;0.73;;;;;;;;;;5037688;28;20084;-84
2022/07/02 11:32:52;;;;;;;5.38;0.90;;;;;;;;;;5034735;28;20039;-84
2022/07/02 11:35:18;;;;;;;3.28;0.82;;;;;;;;;;5036503;28;20038;-85
2022/07/02 11:37:44;;;;;;;3.95;0.77;;;;;;;;;;5044256;28;20046;-85
2022/07/02 11:40:24;;;;;;;3.88;0.93;;;;;;;;;;5039982;28;20092;-86
2022/07/02 11:42:50;;;;;;;3.63;0.80;;;;;;;;;;5034632;28;20033;-86
2022/07/02 11:45:16;;;;;;;4.18;0.90;;;;;;;;;;5038215;28;20057;-85
2022/07/02 11:47:43;;;;;;;3.45;0.80;;;;;;;;;;5030562;28;20488;-87
2022/07/02 11:50:09;;;;;;;4.88;0.90;;;;;;;;;;5033009;28;20495;-86
2022/07/02 11:52:35;;;;;;;5.28;1.00;;;;;;;;;;5027826;28;20046;-84
2022/07/02 11:55:05;;;;;;;3.63;0.77;;;;;;;;;;5028432;28;20045;-83
2022/07/02 11:57:34;;;;;;;2.95;0.70;;;;;;;;;;5035702;28;20049;-85
2022/07/02 12:00:00;;;;;;;7.82;0.90;;;;;;;;;;5038900;28;20044;-85
2022/07/02 12:02:36;;;;;;;4.28;0.80;;;;;;;;;;5037697;28;20049;-86
2022/07/02 12:05:13;;;;;;;3.47;1.08;;;;;;;;;;5048073;28;20061;-86
2022/07/02 12:07:42;;;;;;;3.95;1.00;;;;;;;;;;5038039;28;20418;-85
2022/07/02 12:10:09;;;;;;;4.90;1.00;;;;;;;;;;5055337;28;20044;-85
2022/07/02 12:12:35;;;;;;;4.60;1.00;;;;;;;;;;5038452;28;20048;-86
2022/07/02 12:15:03;;;;;;;4.45;0.80;;;;;;;;;;5057577;28;20041;-84
2022/07/02 12:17:30;;;;;;;5.55;1.20;;;;;;;;;;5050300;28;20083;-83
2022/07/02 12:19:57;;;;;;;4.88;0.90;;;;;;;;;;5056423;28;20525;-85
2022/07/02 12:22:28;;;;;;;4.38;1.00;;;;;;;;;;5052734;28;20036;-84
2022/07/02 12:24:54;;;;;;;6.20;1.08;;;;;;;;;;5034751;28;20114;-84
2022/07/02 12:27:23;;;;;;;5.25;1.00;;;;;;;;;;5054139;28;20052;-83
2022/07/02 12:32:22;;;;;;;4.80;0.80;;;;;;;;;;5056011;28;20160;-83
2022/07/02 12:34:50;;;;;;;4.53;1.20;;;;;;;;;;5032966;28;20091;-82
2022/07/02 12:37:23;;;;;;;4.10;0.98;;;;;;;;;;5022676;28;20033;-83
2022/07/02 12:39:50;;;;;;;5.40;1.20;;;;;;;;;;5054713;28;20061;-83
2022/07/02 12:42:18;;;;;;;3.60;0.98;;;;;;;;;;5058267;28;20377;-84
2022/07/02 12:44:55;;;;;;;3.90;0.88;;;;;;;;;;5056942;28;20037;-83
2022/07/02 12:47:26;;;;;;;3.42;0.90;;;;;;;;;;5037607;28;20127;-82
2022/07/02 12:49:56;;;;;;;6.57;1.20;;;;;;;;;;5055474;28;20048;-82
2022/07/02 12:52:22;;;;;;;4.15;1.15;;;;;;;;;;5056476;28;20045;-85
2022/07/02 12:54:48;;;;;;;4.28;1.00;;;;;;;;;;5055299;28;20041;-84
2022/07/02 12:57:15;;;;;;;5.38;1.23;;;;;;;;;;5054349;28;20046;-85
2022/07/02 12:59:42;;;;;;;5.63;1.00;;;;;;;;;;5054866;28;20419;-86
2022/07/02 13:02:09;;;;;;;4.35;1.00;;;;;;;;;;5057328;28;20044;-86
2022/07/02 13:04:35;;;;;;;3.65;0.80;;;;;;;;;;5050934;28;20104;-84
2022/07/02 13:07:01;;;;;;;5.45;1.00;;;;;;;;;;5054208;28;20045;-83
2022/07/02 13:09:27;;;;;;;3.72;0.98;;;;;;;;;;5027531;28;20041;-83
2022/07/02 13:11:53;;;;;;;6.25;0.90;;;;;;;;;;5049136;28;20072;-82
2022/07/02 13:14:19;;;;;;;4.13;0.98;;;;;;;;;;5035280;28;20045;-82
2022/07/02 13:16:45;;;;;;;3.38;1.00;;;;;;;;;;5051716;28;20033;-82
2022/07/02 13:19:11;;;;;;;3.40;1.00;;;;;;;;;;5045966;28;20038;-83
2022/07/02 13:21:37;;;;;;;3.92;0.82;;;;;;;;;;5044521;28;20041;-83
2022/07/02 13:24:03;;;;;;;4.70;0.90;;;;;;;;;;5040773;28;20074;-82
2022/07/02 13:26:30;;;;;;;5.63;0.90;;;;;;;;;;5044052;28;20048;-81
2022/07/02 13:28:55;;;;;;;4.47;0.90;;;;;;;;;;5044856;28;20503;-82
2022/07/02 13:31:21;;;;;;;5.60;1.00;;;;;;;;;;5052785;28;20045;-82
2022/07/02 13:33:47;;;;;;;3.13;0.73;;;;;;;;;;5053904;28;20032;-82
2022/07/02 13:36:14;;;;;;;5.57;1.00;;;;;;;;;;5036195;28;20434;-81
2022/07/02 13:38:39;;;;;;;6.68;0.93;;;;;;;;;;5053337;28;20480;-81
2022/07/02 13:41:05;;;;;;;3.38;0.70;;;;;;;;;;5036084;28;20052;-81
2022/07/02 13:43:33;;;;;;;4.32;0.90;;;;;;;;;;5052376;28;20045;-82
2022/07/02 13:45:59;;;;;;;5.45;0.90;;;;;;;;;;5034200;28;20503;-81
2022/07/02 13:48:25;;;;;;;5.88;0.90;;;;;;;;;;5045957;28;20044;-81
2022/07/02 13:50:51;;;;;;;5.03;0.80;;;;;;;;;;5039122;28;20111;-82
2022/07/02 13:53:17;;;;;;;3.92;1.05;;;;;;;;;;5042558;28;20480;-82
2022/07/02 13:55:43;;;;;;;3.80;1.00;;;;;;;;;;5051217;28;20033;-82
2022/07/02 13:58:09;;;;;;;3.13;0.90;;;;;;;;;;5048965;28;20081;-82
2022/07/02 14:00:38;;;;;;;4.47;0.85;;;;;;;;;;5042506;28;20037;-82
2022/07/02 14:03:04;;;;;;;5.78;0.85;;;;;;;;;;5053339;28;20047;-81
2022/07/02 14:05:30;;;;;;;4.80;0.68;;;;;;;;;;5052928;28;20056;-82
2022/07/02 14:07:56;;;;;;;4.05;0.80;;;;;;;;;;5053202;28;20049;-84
2022/07/02 14:10:22;;;;;;;4.80;0.80;;;;;;;;;;5060449;28;20072;-82
2022/07/02 14:12:48;;;;;;;4.90;1.00;;;;;;;;;;5067846;28;20041;-82
2022/07/02 14:15:14;;;;;;;4.78;0.88;;;;;;;;;;5050920;28;20045;-83
2022/07/02 14:17:40;;;;;;;4.00;0.93;;;;;;;;;;5053576;28;20045;-83
2022/07/02 14:20:07;;;;;;;4.88;0.88;;;;;;;;;;5050204;28;20108;-83
2022/07/02 14:22:33;;;;;;;4.32;0.70;;;;;;;;;;5065551;28;20850;-81
2022/07/02 14:25:00;;;;;;;4.25;1.05;;;;;;;;;;5063418;28;20037;-81
2022/07/02 14:27:26;;;;;;;3.80;0.70;;;;;;;;;;5065025;28;20133;-80
2022/07/02 14:29:52;;;;;;;3.30;0.90;;;;;;;;;;5062948;28;20052;-81
2022/07/02 14:32:18;;;;;;;3.83;0.60;;;;;;;;;;5053257;28;20514;-81
2022/07/02 14:34:44;;;;;;;3.75;0.82;;;;;;;;;;5072095;28;20080;-80
2022/07/02 14:37:10;;;;;;;5.70;0.90;;;;;;;;;;5068661;28;20056;-81
2022/07/02 14:39:36;;;;;;;8.85;1.13;;;;;;;;;;5048178;28;20037;-81
2022/07/02 14:42:02;;;;;;;5.40;0.80;;;;;;;;;;5065082;28;20055;-81
2022/07/02 14:44:28;;;;;;;5.75;0.90;;;;;;;;;;5052493;28;20048;-81
2022/07/02 14:46:54;;;;;;;4.53;0.82;;;;;;;;;;5052334;28;20037;-81
2022/07/02 14:49:20;;;;;;;4.47;0.90;;;;;;;;;;5050474;28;20048;-81
2022/07/02 14:51:46;;;;;;;3.30;0.80;;;;;;;;;;5039917;28;20442;-81